createdAt,value
2023-05-18T00:01:24.232Z,99287.28
2023-05-18T00:03:54.313Z,99295.81
2023-05-18T00:06:22.576Z,99293.25
2023-05-18T00:08:49.788Z,99301.94
2023-05-18T00:11:17.749Z,99295.56
2023-05-18T00:13:44.970Z,99299.81
2023-05-18T00:16:13.727Z,99301.16
2023-05-18T00:18:41.594Z,99302.09
2023-05-18T00:21:09.141Z,99296.56
2023-05-18T00:23:39.504Z,99303.03
2023-05-18T00:26:06.907Z,99304.81
2023-05-18T00:28:34.076Z,99312.56
2023-05-18T00:31:01.356Z,99306.69
2023-05-18T00:33:28.814Z,99312.72
2023-05-18T00:35:57.417Z,99307.22
2023-05-18T00:38:24.848Z,99304.97
2023-05-18T00:40:52.227Z,99311.72
2023-05-18T00:43:19.326Z,99312.56
2023-05-18T00:45:46.539Z,99311.56
2023-05-18T00:48:14.022Z,99306.44
2023-05-18T00:50:41.340Z,99312.56
2023-05-18T00:53:10.647Z,99310.09
2023-05-18T00:55:38.382Z,99307.44
2023-05-18T00:58:05.773Z,99313.84
2023-05-18T01:00:33.987Z,99308.03
2023-05-18T01:03:04.452Z,99313.94
2023-05-18T01:05:31.907Z,99316.78
2023-05-18T01:07:59.383Z,99317.59
2023-05-18T01:10:27.013Z,99320.22
2023-05-18T01:12:58.896Z,99320.13
2023-05-18T01:15:48.570Z,99322.16
2023-05-18T01:18:23.520Z,99331.78
2023-05-18T01:21:00.334Z,99329.22
2023-05-18T01:23:49.214Z,99325.91
2023-05-18T01:26:24.885Z,99331.25
2023-05-18T01:28:54.316Z,99337.06
2023-05-18T01:31:23.345Z,99339.44
2023-05-18T01:33:50.604Z,99336.47
2023-05-18T01:36:17.828Z,99329.41
2023-05-18T01:38:45.862Z,99330.00
2023-05-18T01:41:22.719Z,99339.63
2023-05-18T01:43:59.018Z,99338.84
2023-05-18T01:46:36.875Z,99342.44
2023-05-18T01:49:16.967Z,99345.91
2023-05-18T01:51:50.086Z,99344.19
2023-05-18T01:54:21.365Z,99345.97
2023-05-18T01:56:49.316Z,99352.28
2023-05-18T01:59:17.445Z,99352.44
2023-05-18T02:01:45.305Z,99355.84
2023-05-18T02:04:12.803Z,99360.37
2023-05-18T02:06:40.031Z,99361.59
2023-05-18T02:09:09.058Z,99364.91
2023-05-18T02:11:36.452Z,99361.22
2023-05-18T02:14:03.553Z,99360.53
2023-05-18T02:16:30.653Z,99367.25
2023-05-18T02:18:58.255Z,99368.97
2023-05-18T02:21:26.290Z,99365.28
2023-05-18T02:23:53.437Z,99370.50
2023-05-18T02:26:21.134Z,99371.28
2023-05-18T02:28:52.557Z,99368.81
2023-05-18T02:31:19.664Z,99373.56
2023-05-18T02:33:46.787Z,99380.28
2023-05-18T02:36:14.796Z,99375.16
2023-05-18T02:38:43.458Z,99374.47
2023-05-18T02:41:12.150Z,99382.47
2023-05-18T02:43:39.622Z,99371.94
2023-05-18T02:46:07.604Z,99390.16
2023-05-18T02:48:34.913Z,99380.59
2023-05-18T02:51:02.291Z,99386.75
2023-05-18T02:53:29.555Z,99380.44
2023-05-18T02:55:58.108Z,99387.22
2023-05-18T02:58:26.877Z,99389.75
2023-05-18T03:01:00.305Z,99392.09
2023-05-18T03:03:28.217Z,99383.72
2023-05-18T03:05:55.701Z,99386.97
2023-05-18T03:08:22.912Z,99381.47
2023-05-18T03:10:50.905Z,99384.19
2023-05-18T03:13:18.200Z,99385.66
2023-05-18T03:15:49.336Z,99391.94
2023-05-18T03:18:19.009Z,99391.78
2023-05-18T03:20:46.341Z,99392.47
2023-05-18T03:23:13.503Z,99386.19
2023-05-18T03:25:40.949Z,99388.12
2023-05-18T03:28:08.016Z,99389.94
2023-05-18T03:30:35.720Z,99397.91
2023-05-18T03:33:04.613Z,99387.28
2023-05-18T03:35:32.822Z,99404.13
2023-05-18T03:38:00.138Z,99407.59
2023-05-18T03:40:27.589Z,99409.25
2023-05-18T03:42:54.785Z,99409.78
2023-05-18T03:45:21.868Z,99406.13
2023-05-18T03:47:49.346Z,99410.47
2023-05-18T03:50:16.688Z,99416.59
2023-05-18T03:52:44.626Z,99416.75
2023-05-18T03:55:12.323Z,99420.41
2023-05-18T03:57:39.731Z,99415.91
2023-05-18T04:00:12.112Z,99421.97
2023-05-18T04:02:44.235Z,99419.88
2023-05-18T04:05:12.578Z,99424.22
2023-05-18T04:07:44.180Z,99427.09
2023-05-18T04:10:12.878Z,99421.81
2023-05-18T04:12:42.323Z,99430.72
2023-05-18T04:15:10.535Z,99426.62
2023-05-18T04:17:39.732Z,99429.19
2023-05-18T04:20:13.323Z,99432.44
2023-05-18T04:22:46.755Z,99430.03
2023-05-18T04:25:15.295Z,99433.31
2023-05-18T04:27:45.464Z,99438.63
2023-05-18T04:30:13.841Z,99439.81
2023-05-18T04:32:43.249Z,99447.31
2023-05-18T04:35:11.880Z,99440.25
2023-05-18T04:37:43.109Z,99448.53
2023-05-18T04:40:17.059Z,99455.41
2023-05-18T04:42:47.712Z,99451.69
2023-05-18T04:45:17.900Z,99451.75
2023-05-18T04:47:47.217Z,99450.59
2023-05-18T04:50:19.253Z,99453.09
2023-05-18T04:52:49.088Z,99445.00
2023-05-18T04:55:23.098Z,99442.38
2023-05-18T04:57:50.942Z,99448.88
2023-05-18T05:00:18.637Z,99451.87
2023-05-18T05:02:45.999Z,99446.78
2023-05-18T05:05:13.744Z,99450.94
2023-05-18T05:07:41.065Z,99453.44
2023-05-18T05:10:09.775Z,99457.69
2023-05-18T05:12:38.426Z,99460.28
2023-05-18T05:15:06.506Z,99465.47
2023-05-18T05:17:34.057Z,99463.47
2023-05-18T05:20:01.536Z,99466.53
2023-05-18T05:22:28.780Z,99468.16
2023-05-18T05:24:56.289Z,99464.38
2023-05-18T05:27:26.174Z,99466.87
2023-05-18T05:29:53.520Z,99462.66
2023-05-18T05:32:20.715Z,99471.19
2023-05-18T05:34:50.421Z,99476.63
2023-05-18T05:37:18.767Z,99471.25
2023-05-18T05:39:46.427Z,99469.31
2023-05-18T05:42:16.297Z,99474.34
2023-05-18T05:44:43.446Z,99472.63
2023-05-18T05:47:11.153Z,99478.13
2023-05-18T05:49:38.683Z,99477.88
2023-05-18T05:52:07.071Z,99479.34
2023-05-18T05:54:34.364Z,99479.44
2023-05-18T05:57:02.025Z,99479.88
2023-05-18T05:59:29.291Z,99478.75
2023-05-18T06:01:56.668Z,99483.28
2023-05-18T06:04:24.527Z,99487.62
2023-05-18T06:06:53.150Z,99496.19
2023-05-18T06:09:21.123Z,99497.22
2023-05-18T06:11:49.172Z,99488.78
2023-05-18T06:14:16.676Z,99495.75
2023-05-18T06:16:44.355Z,99497.41
2023-05-18T06:19:11.878Z,99502.00
2023-05-18T06:21:39.256Z,99503.94
2023-05-18T06:24:07.286Z,99506.16
2023-05-18T06:26:34.919Z,99501.22
2023-05-18T06:29:03.027Z,99505.31
2023-05-18T06:31:30.670Z,99503.75
2023-05-18T06:33:58.555Z,99508.03
2023-05-18T06:36:25.791Z,99513.50
2023-05-18T06:38:52.905Z,99514.03
2023-05-18T06:41:20.683Z,99516.16
2023-05-18T06:43:47.961Z,99518.56
2023-05-18T06:46:23.361Z,99519.66
2023-05-18T06:48:51.437Z,99517.19
2023-05-18T06:51:19.460Z,99525.12
2023-05-18T06:53:47.031Z,99527.28
2023-05-18T06:56:14.701Z,99531.03
2023-05-18T06:58:42.956Z,99534.34
2023-05-18T07:01:11.101Z,99537.41
2023-05-18T07:03:38.900Z,99539.03
2023-05-18T07:06:06.506Z,99538.25
2023-05-18T07:08:33.882Z,99539.91
2023-05-18T07:11:02.584Z,99534.28
2023-05-18T07:13:30.365Z,99536.91
2023-05-18T07:15:58.124Z,99548.97
2023-05-18T07:18:26.556Z,99537.94
2023-05-18T07:20:53.821Z,99542.53
2023-05-18T07:23:21.001Z,99541.34
2023-05-18T07:25:49.146Z,99544.41
2023-05-18T07:28:16.405Z,99536.56
2023-05-18T07:30:43.445Z,99547.56
2023-05-18T07:33:10.853Z,99551.84
2023-05-18T07:35:37.977Z,99555.16
2023-05-18T07:38:05.086Z,99555.78
2023-05-18T07:40:32.459Z,99565.75
2023-05-18T07:42:59.586Z,99562.50
2023-05-18T07:45:26.776Z,99562.56
2023-05-18T07:47:54.405Z,99571.03
2023-05-18T07:50:21.765Z,99579.56
2023-05-18T07:52:48.931Z,99570.31
2023-05-18T07:55:16.547Z,99571.69
2023-05-18T07:57:43.620Z,99578.28
2023-05-18T08:00:11.325Z,99578.59
2023-05-18T08:02:40.079Z,99575.94
2023-05-18T08:05:08.524Z,99572.63
2023-05-18T08:07:36.192Z,99572.06
2023-05-18T08:10:03.818Z,99566.97
2023-05-18T08:12:31.243Z,99575.88
2023-05-18T08:14:58.418Z,99574.97
2023-05-18T08:17:26.163Z,99581.87
2023-05-18T08:19:54.219Z,99581.59
2023-05-18T08:22:21.745Z,99584.09
2023-05-18T08:24:48.923Z,99589.97
2023-05-18T08:27:16.430Z,99592.44
2023-05-18T08:29:43.503Z,99587.22
2023-05-18T08:32:10.753Z,99592.72
2023-05-18T08:34:38.183Z,99592.44
2023-05-18T08:37:05.328Z,99591.47
2023-05-18T08:39:32.541Z,99595.13
2023-05-18T08:42:12.343Z,99591.75
2023-05-18T08:44:46.082Z,99595.47
2023-05-18T08:47:14.526Z,99600.81
2023-05-18T08:49:42.797Z,99595.72
2023-05-18T08:52:15.539Z,99598.84
2023-05-18T08:54:43.294Z,99600.25
2023-05-18T08:57:11.400Z,99601.28
2023-05-18T08:59:43.469Z,99601.12
2023-05-18T09:02:11.507Z,99592.50
2023-05-18T09:04:39.065Z,99595.16
2023-05-18T09:07:07.290Z,99597.81
2023-05-18T09:09:35.770Z,99596.31
2023-05-18T09:12:03.539Z,99589.94
2023-05-18T09:14:32.526Z,99587.91
2023-05-18T09:17:00.787Z,99596.84
2023-05-18T09:19:28.671Z,99595.94
2023-05-18T09:21:55.749Z,99595.50
2023-05-18T09:24:24.864Z,99596.69
2023-05-18T09:26:52.679Z,99593.97
2023-05-18T09:29:22.138Z,99599.31
2023-05-18T09:31:50.289Z,99604.41
2023-05-18T09:34:19.332Z,99601.78
2023-05-18T09:36:52.934Z,99604.44
2023-05-18T09:39:26.447Z,99604.09
2023-05-18T09:41:57.816Z,99605.06
2023-05-18T09:44:32.744Z,99611.84
2023-05-18T09:46:59.913Z,99607.56
2023-05-18T09:49:30.308Z,99609.31
2023-05-18T09:51:59.974Z,99606.97
2023-05-18T09:54:27.505Z,99608.34
2023-05-18T09:57:09.644Z,99610.78
2023-05-18T09:59:38.600Z,99615.47
2023-05-18T10:02:07.686Z,99607.34
2023-05-18T10:04:39.422Z,99610.81
2023-05-18T10:07:11.748Z,99618.13
2023-05-18T10:09:43.585Z,99612.41
2023-05-18T10:12:21.196Z,99612.63
2023-05-18T10:14:49.299Z,99613.37
2023-05-18T10:17:17.677Z,99613.66
2023-05-18T10:19:46.694Z,99614.97
2023-05-18T10:22:17.590Z,99610.25
2023-05-18T10:24:50.142Z,99619.22
2023-05-18T10:27:21.546Z,99622.13
2023-05-18T10:29:52.343Z,99622.97
2023-05-18T10:32:21.736Z,99612.03
2023-05-18T10:34:52.746Z,99613.94
2023-05-18T10:37:23.775Z,99611.78
2023-05-18T10:39:52.194Z,99618.66
2023-05-18T10:42:20.720Z,99624.59
2023-05-18T10:44:48.159Z,99611.59
2023-05-18T10:47:15.674Z,99619.25
2023-05-18T10:49:43.969Z,99618.22
2023-05-18T10:52:12.220Z,99619.84
2023-05-18T10:54:40.900Z,99622.84
2023-05-18T10:57:13.175Z,99616.41
2023-05-18T10:59:43.163Z,99620.06
2023-05-18T11:02:13.528Z,99618.38
2023-05-18T11:04:41.065Z,99616.56
2023-05-18T11:07:12.615Z,99621.22
2023-05-18T11:09:44.294Z,99619.31
2023-05-18T11:12:14.020Z,99617.72
2023-05-18T11:14:52.616Z,99627.19
2023-05-18T11:17:26.136Z,99629.97
2023-05-18T11:20:09.024Z,99634.94
2023-05-18T11:22:52.744Z,99629.13
2023-05-18T11:25:25.969Z,99630.91
2023-05-18T11:27:55.853Z,99632.50
2023-05-18T11:30:44.659Z,99634.34
2023-05-18T11:33:14.772Z,99638.06
2023-05-18T11:36:04.889Z,99633.94
2023-05-18T11:38:54.777Z,99636.31
2023-05-18T11:41:46.950Z,99643.94
2023-05-18T11:44:20.257Z,99637.22
2023-05-18T11:47:00.304Z,99648.56
2023-05-18T11:49:29.764Z,99643.13
2023-05-18T11:52:26.604Z,99637.44
2023-05-18T11:54:56.457Z,99637.22
2023-05-18T11:57:36.149Z,99638.31
2023-05-18T12:00:17.131Z,99644.31
2023-05-18T12:02:48.817Z,99634.25
2023-05-18T12:05:16.375Z,99643.78
2023-05-18T12:07:44.963Z,99645.03
2023-05-18T12:10:17.716Z,99641.94
2023-05-18T12:12:49.376Z,99649.03
2023-05-18T12:15:17.581Z,99647.81
2023-05-18T12:17:49.800Z,99652.34
2023-05-18T12:20:19.092Z,99645.19
2023-05-18T12:22:53.167Z,99652.69
2023-05-18T12:25:25.755Z,99650.59
2023-05-18T12:27:54.237Z,99646.09
2023-05-18T12:30:34.526Z,99650.66
2023-05-18T12:33:06.949Z,99646.75
2023-05-18T12:35:34.610Z,99646.81
2023-05-18T12:38:02.502Z,99643.75
2023-05-18T12:40:48.884Z,99647.44
2023-05-18T12:43:16.439Z,99650.47
2023-05-18T12:45:45.114Z,99646.53
2023-05-18T12:48:13.402Z,99640.53
2023-05-18T12:50:48.763Z,99641.50
2023-05-18T12:53:17.144Z,99639.88
2023-05-18T12:55:45.351Z,99647.00
2023-05-18T12:58:15.845Z,99646.59
2023-05-18T13:00:44.947Z,99645.94
2023-05-18T13:03:17.846Z,99641.09
2023-05-18T13:06:01.456Z,99635.84
2023-05-18T13:08:29.222Z,99642.41
2023-05-18T13:11:12.591Z,99645.41
2023-05-18T13:14:00.580Z,99642.84
2023-05-18T13:16:30.235Z,99641.06
2023-05-18T13:19:07.444Z,99644.94
2023-05-18T13:21:35.842Z,99638.53
2023-05-18T13:24:06.209Z,99641.28
2023-05-18T13:26:33.323Z,99641.38
2023-05-18T13:29:00.609Z,99651.66
2023-05-18T13:31:29.675Z,99647.56
2023-05-18T13:33:57.372Z,99653.69
2023-05-18T13:36:24.749Z,99647.72
2023-05-18T13:38:52.410Z,99648.56
2023-05-18T13:41:19.705Z,99649.44
2023-05-18T13:43:46.773Z,99649.13
2023-05-18T13:46:14.511Z,99647.31
2023-05-18T13:48:41.617Z,99650.81
2023-05-18T13:51:08.732Z,99648.28
2023-05-18T13:53:38.001Z,99652.41
2023-05-18T13:56:06.073Z,99657.81
2023-05-18T13:58:33.064Z,99652.69
2023-05-18T14:01:03.932Z,99651.31
2023-05-18T14:03:33.899Z,99661.88
2023-05-18T14:06:01.213Z,99651.00
2023-05-18T14:08:28.204Z,99662.31
2023-05-18T14:10:55.575Z,99664.13
2023-05-18T14:13:22.593Z,99656.56
2023-05-18T14:15:49.602Z,99654.78
2023-05-18T14:18:17.192Z,99652.31
2023-05-18T14:20:44.858Z,99659.34
2023-05-18T14:23:11.842Z,99654.34
2023-05-18T14:25:39.203Z,99660.63
2023-05-18T14:28:06.241Z,99658.72
2023-05-18T14:30:33.420Z,99659.97
2023-05-18T14:33:01.458Z,99660.81
2023-05-18T14:35:28.631Z,99668.09
2023-05-18T14:37:55.696Z,99660.53
2023-05-18T14:40:23.133Z,99665.00
2023-05-18T14:42:51.614Z,99665.94
2023-05-18T14:45:20.805Z,99665.09
2023-05-18T14:47:48.313Z,99665.72
2023-05-18T14:50:15.366Z,99667.09
2023-05-18T14:52:42.409Z,99659.19
2023-05-18T14:55:09.925Z,99658.97
2023-05-18T14:57:36.935Z,99664.94
2023-05-18T15:00:04.592Z,99662.41
2023-05-18T15:02:32.366Z,99673.16
2023-05-18T15:04:59.800Z,99677.84
2023-05-18T15:07:26.949Z,99676.38
2023-05-18T15:09:55.379Z,99677.25
2023-05-18T15:12:23.381Z,99680.53
2023-05-18T15:14:50.721Z,99673.91
2023-05-18T15:17:18.162Z,99672.09
2023-05-18T15:19:45.365Z,99668.28
2023-05-18T15:22:12.565Z,99670.84
2023-05-18T15:24:39.930Z,99666.47
2023-05-18T15:27:07.208Z,99674.34
2023-05-18T15:29:34.649Z,99668.38
2023-05-18T15:32:02.146Z,99670.97
2023-05-18T15:34:29.879Z,99669.97
2023-05-18T15:36:56.996Z,99665.37
2023-05-18T15:39:24.404Z,99665.37
2023-05-18T15:41:51.466Z,99668.25
2023-05-18T15:44:18.503Z,99659.19
2023-05-18T15:46:45.916Z,99666.34
2023-05-18T15:49:12.959Z,99671.69
2023-05-18T15:51:40.014Z,99666.47
2023-05-18T15:54:07.393Z,99665.09
2023-05-18T15:56:34.407Z,99676.56
2023-05-18T15:59:01.510Z,99671.44
2023-05-18T16:01:28.932Z,99671.22
2023-05-18T16:03:56.380Z,99672.41
2023-05-18T16:06:23.689Z,99673.44
2023-05-18T16:08:51.152Z,99677.03
2023-05-18T16:11:18.479Z,99679.69
2023-05-18T16:13:45.716Z,99677.22
2023-05-18T16:16:14.250Z,99681.44
2023-05-18T16:18:41.943Z,99676.88
2023-05-18T16:21:09.427Z,99681.09
2023-05-18T16:23:36.552Z,99695.87
2023-05-18T16:26:05.651Z,99687.91
2023-05-18T16:28:32.860Z,99690.09
2023-05-18T16:31:00.164Z,99693.41
2023-05-18T16:33:28.151Z,99697.50
2023-05-18T16:35:55.992Z,99691.16
2023-05-18T16:38:23.043Z,99693.81
2023-05-18T16:40:50.423Z,99689.47
2023-05-18T16:43:17.521Z,99688.50
2023-05-18T16:45:44.960Z,99687.34
2023-05-18T16:48:12.333Z,99687.34
2023-05-18T16:50:39.457Z,99687.78
2023-05-18T16:53:06.470Z,99687.59
2023-05-18T16:55:33.774Z,99684.66
2023-05-18T16:58:02.213Z,99693.16
2023-05-18T17:00:29.666Z,99685.75
2023-05-18T17:02:58.130Z,99691.81
2023-05-18T17:05:25.988Z,99696.84
2023-05-18T17:07:53.169Z,99689.72
2023-05-18T17:10:20.821Z,99695.59
2023-05-18T17:12:48.063Z,99693.59
2023-05-18T17:15:16.339Z,99694.44
2023-05-18T17:17:44.329Z,99698.38
2023-05-18T17:20:11.706Z,99710.84
2023-05-18T17:22:38.779Z,99708.56
2023-05-18T17:25:06.966Z,99699.59
2023-05-18T17:27:34.402Z,99700.34
2023-05-18T17:30:01.454Z,99703.06
2023-05-18T17:32:28.876Z,99711.34
2023-05-18T17:34:55.971Z,99707.22
2023-05-18T17:37:23.122Z,99700.59
2023-05-18T17:39:50.465Z,99704.97
2023-05-18T17:42:18.147Z,99706.13
2023-05-18T17:44:47.328Z,99714.94
2023-05-18T17:47:15.186Z,99705.34
2023-05-18T17:49:42.347Z,99711.06
2023-05-18T17:52:09.506Z,99703.47
2023-05-18T17:54:36.829Z,99703.91
2023-05-18T17:57:04.490Z,99709.97
2023-05-18T17:59:31.524Z,99708.47
2023-05-18T18:01:58.820Z,99699.00
2023-05-18T18:04:26.185Z,99706.00
2023-05-18T18:06:54.520Z,99701.00
2023-05-18T18:09:22.291Z,99699.19
2023-05-18T18:11:49.706Z,99701.66
2023-05-18T18:14:17.417Z,99702.59
2023-05-18T18:16:44.757Z,99697.75
2023-05-18T18:19:13.382Z,99703.75
2023-05-18T18:21:40.809Z,99712.47
2023-05-18T18:24:07.934Z,99711.87
2023-05-18T18:26:40.504Z,99711.66
2023-05-18T18:29:07.809Z,99722.66
2023-05-18T18:31:35.650Z,99729.09
2023-05-18T18:34:02.856Z,99730.44
2023-05-18T18:36:29.999Z,99732.00
2023-05-18T18:38:57.305Z,99741.50
2023-05-18T18:41:24.482Z,99741.94
2023-05-18T18:43:53.983Z,99734.94
2023-05-18T18:46:21.593Z,99735.19
2023-05-18T18:48:48.803Z,99737.00
2023-05-18T18:51:15.987Z,99740.91
2023-05-18T18:53:43.368Z,99742.78
2023-05-18T18:56:10.593Z,99746.75
2023-05-18T18:58:37.634Z,99746.81
2023-05-18T19:01:04.965Z,99755.16
2023-05-18T19:03:33.035Z,99755.34
2023-05-18T19:06:00.289Z,99751.06
2023-05-18T19:08:27.707Z,99749.44
2023-05-18T19:10:55.001Z,99757.22
2023-05-18T19:13:22.195Z,99750.22
2023-05-18T19:15:50.271Z,99765.44
2023-05-18T19:18:17.713Z,99758.50
2023-05-18T19:20:44.790Z,99769.28
2023-05-18T19:23:12.214Z,99769.53
2023-05-18T19:25:39.495Z,99778.94
2023-05-18T19:28:06.800Z,99774.25
2023-05-18T19:30:34.192Z,99777.22
2023-05-18T19:33:01.389Z,99780.97
2023-05-18T19:35:29.016Z,99786.38
2023-05-18T19:37:57.196Z,99783.72
2023-05-18T19:40:27.188Z,99793.38
2023-05-18T19:42:54.378Z,99796.47
2023-05-18T19:45:22.050Z,99797.75
2023-05-18T19:47:49.107Z,99804.94
2023-05-18T19:50:16.229Z,99811.09
2023-05-18T19:52:43.646Z,99803.66
2023-05-18T19:55:10.843Z,99812.72
2023-05-18T19:57:38.164Z,99814.53
2023-05-18T20:00:10.989Z,99818.72
2023-05-18T20:02:39.435Z,99818.13
2023-05-18T20:05:08.096Z,99820.00
2023-05-18T20:07:35.176Z,99817.19
2023-05-18T20:10:02.306Z,99825.91
2023-05-18T20:12:29.738Z,99826.66
2023-05-18T20:14:57.022Z,99826.22
2023-05-18T20:17:24.856Z,99821.78
2023-05-18T20:19:52.194Z,99826.31
2023-05-18T20:22:19.988Z,99829.12
2023-05-18T20:24:47.079Z,99828.13
2023-05-18T20:27:15.520Z,99833.31
2023-05-18T20:29:42.938Z,99833.50
2023-05-18T20:32:10.013Z,99835.91
2023-05-18T20:34:37.464Z,99835.81
2023-05-18T20:37:05.401Z,99836.66
2023-05-18T20:39:32.938Z,99843.41
2023-05-18T20:42:03.284Z,99835.63
2023-05-18T20:44:31.413Z,99837.59
2023-05-18T20:47:01.054Z,99839.69
2023-05-18T20:49:28.396Z,99837.53
2023-05-18T20:51:55.470Z,99834.28
2023-05-18T20:54:22.650Z,99832.47
2023-05-18T20:56:51.294Z,99840.69
2023-05-18T20:59:19.165Z,99833.41
2023-05-18T21:01:46.251Z,99838.28
2023-05-18T21:04:14.170Z,99835.91
2023-05-18T21:06:44.083Z,99838.78
2023-05-18T21:09:11.938Z,99846.84
2023-05-18T21:11:40.021Z,99838.22
2023-05-18T21:14:07.161Z,99848.72
2023-05-18T21:16:34.450Z,99840.53
2023-05-18T21:19:01.963Z,99844.03
2023-05-18T21:21:29.187Z,99847.03
2023-05-18T21:23:56.357Z,99851.63
2023-05-18T21:26:23.762Z,99853.63
2023-05-18T21:28:50.787Z,99853.50
2023-05-18T21:31:17.889Z,99860.72
2023-05-18T21:33:48.239Z,99858.91
2023-05-18T21:36:15.819Z,99858.91
2023-05-18T21:38:43.030Z,99858.56
2023-05-18T21:41:10.417Z,99857.53
2023-05-18T21:43:37.480Z,99864.78
2023-05-18T21:46:05.909Z,99868.56
2023-05-18T21:48:34.447Z,99861.28
2023-05-18T21:51:01.837Z,99865.31
2023-05-18T21:53:28.880Z,99857.78
2023-05-18T21:55:56.265Z,99865.84
2023-05-18T21:58:24.572Z,99866.78
2023-05-18T22:00:51.749Z,99864.91
2023-05-18T22:03:19.194Z,99863.53
2023-05-18T22:05:46.251Z,99869.34
2023-05-18T22:08:13.316Z,99869.69
2023-05-18T22:10:41.588Z,99863.28
2023-05-18T22:13:09.190Z,99870.03
2023-05-18T22:15:37.279Z,99870.28
2023-05-18T22:18:04.834Z,99864.28
2023-05-18T22:20:32.992Z,99875.69
2023-05-18T22:23:00.334Z,99871.84
2023-05-18T22:25:27.818Z,99869.59
2023-05-18T22:27:55.002Z,99863.78
2023-05-18T22:30:23.913Z,99862.75
2023-05-18T22:32:51.887Z,99877.81
2023-05-18T22:35:19.063Z,99863.87
2023-05-18T22:37:46.461Z,99871.63
2023-05-18T22:40:13.904Z,99862.41
2023-05-18T22:42:41.009Z,99871.13
2023-05-18T22:45:09.791Z,99861.13
2023-05-18T22:47:39.032Z,99858.69
2023-05-18T22:50:07.433Z,99852.03
2023-05-18T22:52:34.906Z,99862.03
2023-05-18T22:55:02.584Z,99856.16
2023-05-18T22:57:29.586Z,99853.91
2023-05-18T22:59:56.884Z,99856.56
2023-05-18T23:02:24.206Z,99853.66
2023-05-18T23:04:51.265Z,99851.00
2023-05-18T23:07:18.435Z,99856.37
2023-05-18T23:09:45.748Z,99855.53
2023-05-18T23:12:12.901Z,99852.97
2023-05-18T23:14:39.973Z,99847.41
2023-05-18T23:17:07.452Z,99856.37
2023-05-18T23:19:36.033Z,99851.19
2023-05-18T23:22:03.842Z,99860.16
2023-05-18T23:24:31.283Z,99856.84
2023-05-18T23:26:58.342Z,99866.41
2023-05-18T23:29:25.651Z,99861.28
2023-05-18T23:31:53.045Z,99865.13
2023-05-18T23:34:20.903Z,99872.72
2023-05-18T23:36:53.688Z,99865.19
2023-05-18T23:39:22.313Z,99866.22
2023-05-18T23:41:53.803Z,99871.09
2023-05-18T23:44:21.460Z,99861.19
2023-05-18T23:46:48.818Z,99853.69
2023-05-18T23:49:16.118Z,99855.47
2023-05-18T23:51:44.297Z,99860.50
2023-05-18T23:54:13.075Z,99857.28
2023-05-18T23:56:40.572Z,99858.53
2023-05-18T23:59:09.741Z,99865.63
